createdAt,value
2019-04-01T14:14:56.688Z,32.78
2019-04-01T14:17:27.061Z,32.63
2019-04-01T14:20:02.239Z,32.61
2019-04-01T14:22:33.469Z,32.63
2019-04-01T14:25:07.302Z,32.66
2019-04-01T14:27:39.274Z,32.67
2019-04-01T14:30:10.463Z,32.70
2019-04-01T14:32:45.325Z,32.72
2019-04-01T14:35:16.812Z,32.75
2019-04-01T14:37:46.501Z,32.79
2019-04-01T14:40:19.471Z,32.77
2019-04-01T14:42:50.779Z,32.78
2019-04-01T14:45:22.707Z,32.80
2019-04-01T14:47:57.618Z,32.78
2019-04-01T14:50:25.661Z,32.79
2019-04-01T14:52:56.577Z,32.79
2019-04-01T14:55:28.541Z,32.81
2019-04-01T14:58:03.830Z,32.83
2019-04-01T15:00:35.207Z,32.80
2019-04-01T15:03:11.964Z,32.81
2019-04-01T15:05:43.023Z,32.79
2019-04-01T15:08:15.179Z,32.78
2019-04-01T15:10:47.190Z,32.77
2019-04-01T15:13:18.384Z,32.77
2019-04-01T15:15:49.991Z,32.77
2019-04-01T15:18:24.129Z,32.78
2019-04-01T15:20:55.490Z,32.75
2019-04-01T15:23:27.300Z,32.80
2019-04-01T15:25:58.037Z,32.74
2019-04-01T15:28:30.579Z,32.75
2019-04-01T15:31:02.493Z,32.65
2019-04-01T15:33:33.461Z,32.58
2019-04-01T15:36:05.209Z,32.58
2019-04-01T15:38:36.207Z,32.56
2019-04-01T15:41:07.351Z,32.51
2019-04-01T15:43:40.172Z,32.49
2019-04-01T15:46:12.387Z,32.51
2019-04-01T15:48:42.385Z,32.41
2019-04-01T15:51:22.334Z,32.36
2019-04-01T15:53:53.699Z,32.40
2019-04-01T15:56:24.940Z,32.39
2019-04-01T15:58:55.663Z,32.39
2019-04-01T16:01:26.864Z,32.37
2019-04-01T16:03:56.835Z,32.35
2019-04-01T16:06:29.112Z,32.32
2019-04-01T16:09:00.239Z,32.29
2019-04-01T16:11:31.105Z,32.27
2019-04-01T16:14:02.706Z,32.19
2019-04-01T16:16:33.705Z,32.24
2019-04-01T16:19:04.976Z,32.27
2019-04-01T16:21:43.663Z,32.23
2019-04-01T16:24:15.355Z,32.28
2019-04-01T16:26:47.829Z,32.22
2019-04-01T16:29:19.432Z,32.16
2019-04-01T16:31:51.166Z,32.21
2019-04-01T16:34:21.360Z,32.28
2019-04-01T16:36:55.823Z,32.29
2019-04-01T16:39:27.303Z,32.28
2019-04-01T16:41:59.187Z,32.28
2019-04-01T16:44:30.708Z,32.26
2019-04-01T16:47:00.901Z,32.24
2019-04-01T16:49:32.468Z,32.26
2019-04-01T16:52:03.332Z,32.27
2019-04-01T16:54:34.674Z,32.25
2019-04-01T16:57:09.409Z,32.30
2019-04-01T16:59:41.622Z,32.26
2019-04-01T17:02:18.276Z,32.22
2019-04-01T17:04:46.240Z,32.29
2019-04-01T17:07:19.774Z,32.27
2019-04-01T17:09:51.299Z,32.30
2019-04-01T17:12:32.329Z,32.37
2019-04-01T17:15:06.449Z,32.27
2019-04-01T17:17:38.200Z,32.20
2019-04-01T17:20:10.160Z,32.31
2019-04-01T17:22:43.263Z,32.29
2019-04-01T17:25:15.438Z,32.13
2019-04-01T17:27:46.670Z,32.21
2019-04-01T17:30:16.910Z,32.21
2019-04-01T17:32:48.755Z,32.16
2019-04-01T17:35:20.246Z,32.24
2019-04-01T17:37:50.511Z,32.25
2019-04-01T17:40:23.811Z,32.16
2019-04-01T17:42:55.583Z,32.09
2019-04-01T17:45:29.440Z,32.13
2019-04-01T17:48:00.762Z,32.09
2019-04-01T17:50:30.369Z,32.14
2019-04-01T17:53:02.013Z,32.12
2019-04-01T17:55:33.433Z,32.05
2019-04-01T17:58:05.837Z,32.03
2019-04-01T18:00:38.351Z,31.98
2019-04-01T18:03:12.210Z,31.89
2019-04-01T18:05:43.652Z,31.88
2019-04-01T18:08:16.177Z,31.89
2019-04-01T18:10:48.832Z,31.79
2019-04-01T18:13:22.059Z,31.80
2019-04-01T18:15:52.688Z,31.80
2019-04-01T18:18:27.125Z,31.68
2019-04-01T18:21:05.988Z,31.72
2019-04-01T18:23:37.734Z,31.72
2019-04-01T18:26:07.506Z,31.59
2019-04-01T18:28:38.863Z,31.67
2019-04-01T18:31:10.306Z,31.67
2019-04-01T18:33:56.169Z,31.58
2019-04-01T18:36:25.327Z,31.61
2019-04-01T18:38:59.304Z,31.54
2019-04-01T18:41:31.274Z,31.43
2019-04-01T18:44:03.269Z,31.54
2019-04-01T18:46:34.736Z,31.54
2019-04-01T18:49:06.927Z,31.44
2019-04-01T18:51:39.435Z,31.57
2019-04-01T18:54:14.100Z,31.47
2019-04-01T18:56:48.099Z,31.41
2019-04-01T18:59:19.192Z,31.51
2019-04-01T19:01:51.363Z,31.46
2019-04-01T19:04:25.550Z,31.47
2019-04-01T19:06:59.777Z,31.54
2019-04-01T19:09:32.563Z,31.46
2019-04-01T19:12:04.781Z,31.45
2019-04-01T19:14:36.733Z,31.39
2019-04-01T19:17:08.197Z,31.50
2019-04-01T19:19:42.434Z,31.65
2019-04-01T19:22:14.862Z,31.54
2019-04-01T19:24:47.087Z,31.38
2019-04-01T19:27:18.232Z,31.43
2019-04-01T19:29:52.658Z,31.34
2019-04-01T19:32:27.122Z,31.29
2019-04-01T19:34:57.055Z,31.32
2019-04-01T19:37:28.769Z,31.35
2019-04-01T19:39:59.761Z,31.26
2019-04-01T19:42:32.208Z,31.24
2019-04-01T19:45:03.412Z,31.21
2019-04-01T19:47:35.086Z,31.25
2019-04-01T19:50:08.008Z,31.22
2019-04-01T19:52:39.443Z,31.18
2019-04-01T19:55:18.518Z,31.18
2019-04-01T19:57:50.243Z,31.21
2019-04-01T20:00:27.556Z,31.09
2019-04-01T20:02:52.965Z,31.20
2019-04-01T20:05:24.225Z,31.20
2019-04-01T20:07:55.241Z,31.19
2019-04-01T20:10:28.397Z,31.36
2019-04-01T20:12:59.500Z,31.29
2019-04-01T20:15:29.580Z,31.10
2019-04-01T20:18:01.211Z,31.26
2019-04-01T20:20:32.331Z,31.20
2019-04-01T20:23:03.311Z,31.20
2019-04-01T20:25:35.174Z,31.27
2019-04-01T20:28:06.413Z,31.15
2019-04-01T20:30:38.475Z,31.16
2019-04-01T20:33:17.570Z,31.12
2019-04-01T20:35:42.161Z,31.05
2019-04-01T20:38:14.505Z,31.05
2019-04-01T20:40:47.052Z,30.90
2019-04-01T20:43:18.510Z,30.84
2019-04-01T20:45:48.621Z,31.00
2019-04-01T20:48:20.339Z,30.86
2019-04-01T20:50:54.916Z,30.81
2019-04-01T20:53:26.096Z,30.83
2019-04-01T20:56:00.153Z,30.76
2019-04-01T20:58:31.785Z,30.77
2019-04-01T21:01:03.112Z,30.77
2019-04-01T21:03:34.529Z,30.71
2019-04-01T21:06:15.343Z,30.84
2019-04-01T21:08:47.387Z,30.79
2019-04-01T21:11:19.385Z,30.56
2019-04-01T21:13:53.779Z,30.73
2019-04-01T21:16:24.946Z,30.70
2019-04-01T21:18:57.325Z,30.70
2019-04-01T21:21:28.591Z,30.69
2019-04-01T21:24:00.884Z,30.72
2019-04-01T21:26:32.515Z,30.70
2019-04-01T21:29:03.834Z,30.73
2019-04-01T21:31:38.099Z,30.65
2019-04-01T21:34:10.264Z,30.56
2019-04-01T21:36:42.295Z,30.62
2019-04-01T21:39:13.615Z,30.70
2019-04-01T21:41:44.971Z,30.63
2019-04-01T21:44:18.191Z,30.66
2019-04-01T21:46:50.562Z,30.63
2019-04-01T21:49:21.799Z,30.52
2019-04-01T21:51:53.073Z,30.55
2019-04-01T21:54:24.060Z,30.62
2019-04-01T21:56:55.265Z,30.65
2019-04-01T21:59:26.572Z,30.45
2019-04-01T22:02:00.400Z,30.51
2019-04-01T22:04:31.346Z,30.52
2019-04-01T22:07:02.459Z,30.42
2019-04-01T22:09:34.051Z,30.56
2019-04-01T22:12:05.819Z,30.44
2019-04-01T22:14:36.770Z,30.36
2019-04-01T22:17:08.075Z,30.44
2019-04-01T22:19:39.236Z,30.41
2019-04-01T22:22:10.813Z,30.40
2019-04-01T22:24:43.468Z,30.44
2019-04-01T22:27:14.743Z,30.52
2019-04-01T22:29:45.918Z,30.40
2019-04-01T22:32:16.993Z,30.38
2019-04-01T22:34:49.212Z,30.43
2019-04-01T22:37:27.610Z,30.34
2019-04-01T22:39:56.803Z,30.44
2019-04-01T22:42:28.047Z,30.66
2019-04-01T22:45:04.768Z,30.67
2019-04-01T22:47:41.184Z,30.54
